sensor_id;sensor_type;location;lat;lon;timestamp;temperature;humidity
10213;DHT22;5150;51.400;6.692;2022-09-23T00:01:03;21.30;1.00
10213;DHT22;5150;51.400;6.692;2022-09-23T00:04:30;21.30;1.00
10213;DHT22;5150;51.400;6.692;2022-09-23T00:07:53;21.20;1.00
10213;DHT22;5150;51.400;6.692;2022-09-23T00:11:19;21.20;1.00
10213;DHT22;5150;51.400;6.692;2022-09-23T00:14:42;21.20;1.00
10213;DHT22;5150;51.400;6.692;2022-09-23T00:18:05;21.20;1.00
10213;DHT22;5150;51.400;6.692;2022-09-23T00:21:30;21.20;1.00
10213;DHT22;5150;51.400;6.692;2022-09-23T00:24:52;21.20;1.00
10213;DHT22;5150;51.400;6.692;2022-09-23T00:28:15;21.10;1.00
10213;DHT22;5150;51.400;6.692;2022-09-23T00:31:38;21.10;1.00
10213;DHT22;5150;51.400;6.692;2022-09-23T00:35:01;21.10;1.00
10213;DHT22;5150;51.400;6.692;2022-09-23T00:38:26;21.10;1.00
10213;DHT22;5150;51.400;6.692;2022-09-23T00:41:49;21.10;1.00
10213;DHT22;5150;51.400;6.692;2022-09-23T00:45:13;21.10;1.00
10213;DHT22;5150;51.400;6.692;2022-09-23T00:48:37;21.10;1.00
10213;DHT22;5150;51.400;6.692;2022-09-23T00:52:06;21.10;1.00
10213;DHT22;5150;51.400;6.692;2022-09-23T00:55:35;21.00;1.00
10213;DHT22;5150;51.400;6.692;2022-09-23T00:59:00;21.00;1.00
10213;DHT22;5150;51.400;6.692;2022-09-23T01:02:24;21.00;1.00
10213;DHT22;5150;51.400;6.692;2022-09-23T01:05:49;21.00;1.00
10213;DHT22;5150;51.400;6.692;2022-09-23T01:09:13;21.00;1.00
10213;DHT22;5150;51.400;6.692;2022-09-23T01:12:54;21.00;1.00
10213;DHT22;5150;51.400;6.692;2022-09-23T01:16:25;21.00;1.00
10213;DHT22;5150;51.400;6.692;2022-09-23T01:24:17;20.90;1.00
10213;DHT22;5150;51.400;6.692;2022-09-23T01:28:02;20.90;1.00
10213;DHT22;5150;51.400;6.692;2022-09-23T01:31:33;20.90;1.00
10213;DHT22;5150;51.400;6.692;2022-09-23T01:35:03;20.90;1.00
10213;DHT22;5150;51.400;6.692;2022-09-23T01:38:35;20.90;1.00
10213;DHT22;5150;51.400;6.692;2022-09-23T01:42:04;20.90;1.00
10213;DHT22;5150;51.400;6.692;2022-09-23T01:45:31;20.90;1.00
10213;DHT22;5150;51.400;6.692;2022-09-23T01:49:02;20.80;1.00
10213;DHT22;5150;51.400;6.692;2022-09-23T01:52:31;20.80;1.00
10213;DHT22;5150;51.400;6.692;2022-09-23T01:56:01;20.80;1.00
10213;DHT22;5150;51.400;6.692;2022-09-23T01:59:30;20.80;1.00
10213;DHT22;5150;51.400;6.692;2022-09-23T02:02:58;20.80;1.00
10213;DHT22;5150;51.400;6.692;2022-09-23T02:06:27;20.80;1.00
10213;DHT22;5150;51.400;6.692;2022-09-23T02:09:55;20.80;1.00
10213;DHT22;5150;51.400;6.692;2022-09-23T02:13:22;20.80;1.00
10213;DHT22;5150;51.400;6.692;2022-09-23T02:16:50;20.80;1.00
10213;DHT22;5150;51.400;6.692;2022-09-23T02:20:17;20.70;1.00
10213;DHT22;5150;51.400;6.692;2022-09-23T02:23:48;20.70;1.00
10213;DHT22;5150;51.400;6.692;2022-09-23T02:27:18;20.70;1.00
10213;DHT22;5150;51.400;6.692;2022-09-23T02:30:47;20.80;1.00
10213;DHT22;5150;51.400;6.692;2022-09-23T02:34:18;20.70;1.00
10213;DHT22;5150;51.400;6.692;2022-09-23T02:37:46;20.70;1.00
10213;DHT22;5150;51.400;6.692;2022-09-23T02:41:16;20.70;1.00
10213;DHT22;5150;51.400;6.692;2022-09-23T02:44:43;20.70;1.00
10213;DHT22;5150;51.400;6.692;2022-09-23T02:48:08;20.70;1.00
10213;DHT22;5150;51.400;6.692;2022-09-23T02:51:34;20.70;1.00
10213;DHT22;5150;51.400;6.692;2022-09-23T02:54:59;20.60;1.00
10213;DHT22;5150;51.400;6.692;2022-09-23T02:58:23;20.70;1.00
10213;DHT22;5150;51.400;6.692;2022-09-23T03:01:59;20.70;1.00
10213;DHT22;5150;51.400;6.692;2022-09-23T03:05:28;20.60;1.00
10213;DHT22;5150;51.400;6.692;2022-09-23T03:08:56;20.60;1.00
10213;DHT22;5150;51.400;6.692;2022-09-23T03:12:25;20.60;1.00
10213;DHT22;5150;51.400;6.692;2022-09-23T03:16:07;20.60;1.00
10213;DHT22;5150;51.400;6.692;2022-09-23T03:19:35;20.60;1.00
10213;DHT22;5150;51.400;6.692;2022-09-23T03:23:05;20.50;1.00
10213;DHT22;5150;51.400;6.692;2022-09-23T03:26:33;20.60;1.00
10213;DHT22;5150;51.400;6.692;2022-09-23T03:29:56;20.60;1.00
10213;DHT22;5150;51.400;6.692;2022-09-23T03:33:23;20.60;1.00
10213;DHT22;5150;51.400;6.692;2022-09-23T03:36:54;20.50;1.00
10213;DHT22;5150;51.400;6.692;2022-09-23T03:40:24;20.60;1.00
10213;DHT22;5150;51.400;6.692;2022-09-23T03:43:49;20.50;1.00
10213;DHT22;5150;51.400;6.692;2022-09-23T03:47:14;20.50;1.00
10213;DHT22;5150;51.400;6.692;2022-09-23T03:50:39;20.50;1.00
10213;DHT22;5150;51.400;6.692;2022-09-23T03:54:02;20.50;1.00
10213;DHT22;5150;51.400;6.692;2022-09-23T03:57:25;20.50;1.00
10213;DHT22;5150;51.400;6.692;2022-09-23T04:00:48;20.50;1.00
10213;DHT22;5150;51.400;6.692;2022-09-23T04:04:11;20.50;1.00
10213;DHT22;5150;51.400;6.692;2022-09-23T04:07:35;20.50;1.00
10213;DHT22;5150;51.400;6.692;2022-09-23T04:10:59;20.50;1.00
10213;DHT22;5150;51.400;6.692;2022-09-23T04:14:23;20.40;1.00
10213;DHT22;5150;51.400;6.692;2022-09-23T04:17:45;20.50;1.00
10213;DHT22;5150;51.400;6.692;2022-09-23T04:21:08;20.40;1.00
10213;DHT22;5150;51.400;6.692;2022-09-23T04:24:33;20.40;1.00
10213;DHT22;5150;51.400;6.692;2022-09-23T04:27:56;20.40;1.00
10213;DHT22;5150;51.400;6.692;2022-09-23T04:31:19;20.40;1.00
10213;DHT22;5150;51.400;6.692;2022-09-23T04:34:43;20.40;1.00
10213;DHT22;5150;51.400;6.692;2022-09-23T04:38:05;20.40;1.00
10213;DHT22;5150;51.400;6.692;2022-09-23T04:41:31;20.40;1.00
10213;DHT22;5150;51.400;6.692;2022-09-23T04:44:54;20.40;1.00
10213;DHT22;5150;51.400;6.692;2022-09-23T04:48:18;20.40;1.00
10213;DHT22;5150;51.400;6.692;2022-09-23T04:51:41;20.40;1.00
10213;DHT22;5150;51.400;6.692;2022-09-23T04:55:05;20.40;1.00
10213;DHT22;5150;51.400;6.692;2022-09-23T04:58:33;20.40;1.00
10213;DHT22;5150;51.400;6.692;2022-09-23T05:01:56;20.40;1.00
10213;DHT22;5150;51.400;6.692;2022-09-23T05:05:19;20.40;1.00
10213;DHT22;5150;51.400;6.692;2022-09-23T05:08:48;20.40;1.00
10213;DHT22;5150;51.400;6.692;2022-09-23T05:12:11;20.40;1.00
10213;DHT22;5150;51.400;6.692;2022-09-23T05:15:36;20.40;1.00
10213;DHT22;5150;51.400;6.692;2022-09-23T05:18:59;20.40;1.00
10213;DHT22;5150;51.400;6.692;2022-09-23T05:22:21;20.30;1.00
10213;DHT22;5150;51.400;6.692;2022-09-23T05:25:44;20.30;1.00
10213;DHT22;5150;51.400;6.692;2022-09-23T05:29:08;20.30;1.00
10213;DHT22;5150;51.400;6.692;2022-09-23T05:32:33;20.30;1.00
10213;DHT22;5150;51.400;6.692;2022-09-23T05:35:56;20.30;1.00
10213;DHT22;5150;51.400;6.692;2022-09-23T05:39:19;20.30;1.00
10213;DHT22;5150;51.400;6.692;2022-09-23T05:42:42;20.30;1.00
10213;DHT22;5150;51.400;6.692;2022-09-23T05:46:06;20.30;1.00
10213;DHT22;5150;51.400;6.692;2022-09-23T05:49:30;20.30;1.00
10213;DHT22;5150;51.400;6.692;2022-09-23T05:53:13;20.30;1.00
10213;DHT22;5150;51.400;6.692;2022-09-23T05:56:36;20.30;1.00
10213;DHT22;5150;51.400;6.692;2022-09-23T05:59:59;20.30;1.00
10213;DHT22;5150;51.400;6.692;2022-09-23T06:03:32;20.30;1.00
10213;DHT22;5150;51.400;6.692;2022-09-23T06:06:57;20.30;1.00
10213;DHT22;5150;51.400;6.692;2022-09-23T06:10:24;20.30;1.00
10213;DHT22;5150;51.400;6.692;2022-09-23T06:13:47;20.40;1.00
10213;DHT22;5150;51.400;6.692;2022-09-23T06:17:10;20.40;1.00
10213;DHT22;5150;51.400;6.692;2022-09-23T06:20:34;20.40;1.00
10213;DHT22;5150;51.400;6.692;2022-09-23T06:23:58;20.40;1.00
10213;DHT22;5150;51.400;6.692;2022-09-23T06:27:21;20.50;1.00
10213;DHT22;5150;51.400;6.692;2022-09-23T06:30:44;20.50;1.00
10213;DHT22;5150;51.400;6.692;2022-09-23T06:34:11;20.50;1.00
10213;DHT22;5150;51.400;6.692;2022-09-23T06:37:35;20.60;1.00
10213;DHT22;5150;51.400;6.692;2022-09-23T06:40:59;20.60;1.00
10213;DHT22;5150;51.400;6.692;2022-09-23T06:44:23;20.60;1.00
10213;DHT22;5150;51.400;6.692;2022-09-23T06:47:46;20.60;1.00
10213;DHT22;5150;51.400;6.692;2022-09-23T06:51:16;20.60;1.00
10213;DHT22;5150;51.400;6.692;2022-09-23T06:54:40;20.60;1.00
10213;DHT22;5150;51.400;6.692;2022-09-23T06:58:05;20.60;1.00
10213;DHT22;5150;51.400;6.692;2022-09-23T07:01:27;20.60;1.00
10213;DHT22;5150;51.400;6.692;2022-09-23T07:04:51;20.60;1.00
10213;DHT22;5150;51.400;6.692;2022-09-23T07:08:14;20.60;1.00
10213;DHT22;5150;51.400;6.692;2022-09-23T07:11:37;20.70;1.00
10213;DHT22;5150;51.400;6.692;2022-09-23T07:15:02;20.70;1.00
10213;DHT22;5150;51.400;6.692;2022-09-23T07:18:25;20.80;1.00
10213;DHT22;5150;51.400;6.692;2022-09-23T07:21:53;20.80;1.00
10213;DHT22;5150;51.400;6.692;2022-09-23T07:25:17;20.80;1.00
10213;DHT22;5150;51.400;6.692;2022-09-23T07:28:40;20.90;1.00
10213;DHT22;5150;51.400;6.692;2022-09-23T07:32:04;20.90;1.00
10213;DHT22;5150;51.400;6.692;2022-09-23T07:35:38;20.90;1.00
10213;DHT22;5150;51.400;6.692;2022-09-23T07:39:01;20.90;1.00
10213;DHT22;5150;51.400;6.692;2022-09-23T07:42:24;21.00;1.00
10213;DHT22;5150;51.400;6.692;2022-09-23T07:45:47;21.00;1.00
10213;DHT22;5150;51.400;6.692;2022-09-23T07:49:12;21.00;1.00
10213;DHT22;5150;51.400;6.692;2022-09-23T07:52:35;21.00;1.00
10213;DHT22;5150;51.400;6.692;2022-09-23T07:55:58;21.10;1.00
10213;DHT22;5150;51.400;6.692;2022-09-23T07:59:21;21.20;1.00
10213;DHT22;5150;51.400;6.692;2022-09-23T08:02:45;21.10;1.00
10213;DHT22;5150;51.400;6.692;2022-09-23T08:06:14;21.20;1.00
10213;DHT22;5150;51.400;6.692;2022-09-23T08:09:40;21.20;1.00
10213;DHT22;5150;51.400;6.692;2022-09-23T08:13:03;21.20;1.00
10213;DHT22;5150;51.400;6.692;2022-09-23T08:16:26;21.20;1.00
10213;DHT22;5150;51.400;6.692;2022-09-23T08:19:49;21.30;1.00
10213;DHT22;5150;51.400;6.692;2022-09-23T08:23:14;21.30;1.00
10213;DHT22;5150;51.400;6.692;2022-09-23T08:26:38;21.30;1.00
10213;DHT22;5150;51.400;6.692;2022-09-23T08:30:01;21.30;1.00
10213;DHT22;5150;51.400;6.692;2022-09-23T08:33:23;21.40;1.00
10213;DHT22;5150;51.400;6.692;2022-09-23T08:36:46;21.30;1.00
10213;DHT22;5150;51.400;6.692;2022-09-23T08:40:11;21.40;1.00
10213;DHT22;5150;51.400;6.692;2022-09-23T08:43:36;21.40;1.00
10213;DHT22;5150;51.400;6.692;2022-09-23T08:47:04;21.40;1.00
10213;DHT22;5150;51.400;6.692;2022-09-23T08:50:35;21.40;1.00
10213;DHT22;5150;51.400;6.692;2022-09-23T08:54:02;21.40;1.00
10213;DHT22;5150;51.400;6.692;2022-09-23T08:57:36;21.40;1.00
10213;DHT22;5150;51.400;6.692;2022-09-23T09:01:09;21.40;1.00
10213;DHT22;5150;51.400;6.692;2022-09-23T09:04:40;21.40;1.00
10213;DHT22;5150;51.400;6.692;2022-09-23T09:08:04;21.50;1.00
10213;DHT22;5150;51.400;6.692;2022-09-23T09:11:32;21.50;1.00
10213;DHT22;5150;51.400;6.692;2022-09-23T09:15:01;21.50;1.00
10213;DHT22;5150;51.400;6.692;2022-09-23T09:18:29;21.60;1.00
10213;DHT22;5150;51.400;6.692;2022-09-23T09:21:53;21.60;1.00
10213;DHT22;5150;51.400;6.692;2022-09-23T09:25:35;21.70;1.00
10213;DHT22;5150;51.400;6.692;2022-09-23T09:29:02;21.70;1.00
10213;DHT22;5150;51.400;6.692;2022-09-23T09:32:53;21.70;1.00
10213;DHT22;5150;51.400;6.692;2022-09-23T09:36:27;21.80;1.00
10213;DHT22;5150;51.400;6.692;2022-09-23T09:39:52;21.80;1.00
10213;DHT22;5150;51.400;6.692;2022-09-23T09:43:17;21.80;1.00
10213;DHT22;5150;51.400;6.692;2022-09-23T09:46:51;21.90;1.00
10213;DHT22;5150;51.400;6.692;2022-09-23T09:50:42;21.90;1.00
10213;DHT22;5150;51.400;6.692;2022-09-23T09:54:17;21.90;1.00
10213;DHT22;5150;51.400;6.692;2022-09-23T09:57:46;22.10;1.00
10213;DHT22;5150;51.400;6.692;2022-09-23T10:01:21;22.10;1.00
10213;DHT22;5150;51.400;6.692;2022-09-23T10:04:44;22.10;1.00
10213;DHT22;5150;51.400;6.692;2022-09-23T10:08:24;22.10;1.00
10213;DHT22;5150;51.400;6.692;2022-09-23T10:12:03;22.10;1.00
10213;DHT22;5150;51.400;6.692;2022-09-23T10:15:32;22.20;1.00
10213;DHT22;5150;51.400;6.692;2022-09-23T10:19:13;22.10;1.00
10213;DHT22;5150;51.400;6.692;2022-09-23T10:22:38;22.10;1.00
10213;DHT22;5150;51.400;6.692;2022-09-23T10:26:06;22.20;1.00
10213;DHT22;5150;51.400;6.692;2022-09-23T10:29:31;22.20;1.00
10213;DHT22;5150;51.400;6.692;2022-09-23T10:32:55;22.20;1.00
10213;DHT22;5150;51.400;6.692;2022-09-23T10:36:18;22.20;1.00
10213;DHT22;5150;51.400;6.692;2022-09-23T10:39:41;22.20;1.00
10213;DHT22;5150;51.400;6.692;2022-09-23T10:43:33;22.30;1.00
10213;DHT22;5150;51.400;6.692;2022-09-23T10:47:27;22.30;1.00
10213;DHT22;5150;51.400;6.692;2022-09-23T10:50:54;22.40;1.00
10213;DHT22;5150;51.400;6.692;2022-09-23T10:54:26;22.40;1.00
10213;DHT22;5150;51.400;6.692;2022-09-23T11:01:53;22.50;1.00
10213;DHT22;5150;51.400;6.692;2022-09-23T11:05:31;22.60;1.00
10213;DHT22;5150;51.400;6.692;2022-09-23T11:09:08;22.60;1.00
10213;DHT22;5150;51.400;6.692;2022-09-23T11:12:43;22.70;1.00
10213;DHT22;5150;51.400;6.692;2022-09-23T11:16:17;22.80;1.00
10213;DHT22;5150;51.400;6.692;2022-09-23T11:20:07;23.00;1.00
10213;DHT22;5150;51.400;6.692;2022-09-23T11:23:57;23.40;1.00
10213;DHT22;5150;51.400;6.692;2022-09-23T11:27:30;23.80;1.00
10213;DHT22;5150;51.400;6.692;2022-09-23T11:31:02;24.20;1.00
10213;DHT22;5150;51.400;6.692;2022-09-23T11:34:54;24.50;1.00
10213;DHT22;5150;51.400;6.692;2022-09-23T11:38:26;24.70;1.00
10213;DHT22;5150;51.400;6.692;2022-09-23T11:41:53;24.90;1.00
10213;DHT22;5150;51.400;6.692;2022-09-23T11:45:20;24.90;1.00
10213;DHT22;5150;51.400;6.692;2022-09-23T11:48:48;24.80;1.00
10213;DHT22;5150;51.400;6.692;2022-09-23T11:52:15;24.70;1.00
10213;DHT22;5150;51.400;6.692;2022-09-23T11:55:45;24.60;1.00
10213;DHT22;5150;51.400;6.692;2022-09-23T11:59:29;24.50;1.00
10213;DHT22;5150;51.400;6.692;2022-09-23T12:03:06;24.60;1.00
10213;DHT22;5150;51.400;6.692;2022-09-23T12:06:37;24.80;1.00
10213;DHT22;5150;51.400;6.692;2022-09-23T12:10:03;24.90;1.00
10213;DHT22;5150;51.400;6.692;2022-09-23T12:13:35;25.00;1.00
10213;DHT22;5150;51.400;6.692;2022-09-23T12:17:13;25.00;1.00
10213;DHT22;5150;51.400;6.692;2022-09-23T12:20:53;25.00;1.00
10213;DHT22;5150;51.400;6.692;2022-09-23T12:24:46;24.80;1.00
10213;DHT22;5150;51.400;6.692;2022-09-23T12:28:15;24.60;1.00
10213;DHT22;5150;51.400;6.692;2022-09-23T12:31:42;24.50;1.00
10213;DHT22;5150;51.400;6.692;2022-09-23T12:35:19;24.50;1.00
10213;DHT22;5150;51.400;6.692;2022-09-23T12:38:47;24.30;1.00
10213;DHT22;5150;51.400;6.692;2022-09-23T12:42:15;24.10;1.00
10213;DHT22;5150;51.400;6.692;2022-09-23T12:45:40;23.90;1.00
10213;DHT22;5150;51.400;6.692;2022-09-23T12:49:20;23.80;1.00
10213;DHT22;5150;51.400;6.692;2022-09-23T12:52:44;23.60;1.00
10213;DHT22;5150;51.400;6.692;2022-09-23T12:56:15;23.60;1.00
10213;DHT22;5150;51.400;6.692;2022-09-23T12:59:56;23.60;1.00
10213;DHT22;5150;51.400;6.692;2022-09-23T13:03:20;23.70;1.00
10213;DHT22;5150;51.400;6.692;2022-09-23T13:07:05;23.60;1.00
10213;DHT22;5150;51.400;6.692;2022-09-23T13:10:31;23.60;1.00
10213;DHT22;5150;51.400;6.692;2022-09-23T13:13:58;23.60;1.00
10213;DHT22;5150;51.400;6.692;2022-09-23T13:17:29;23.50;1.00
10213;DHT22;5150;51.400;6.692;2022-09-23T13:20:53;23.50;1.00
10213;DHT22;5150;51.400;6.692;2022-09-23T13:24:23;23.50;1.00
10213;DHT22;5150;51.400;6.692;2022-09-23T13:27:59;23.50;1.00
10213;DHT22;5150;51.400;6.692;2022-09-23T13:31:23;23.50;1.00
10213;DHT22;5150;51.400;6.692;2022-09-23T13:34:53;23.50;1.00
10213;DHT22;5150;51.400;6.692;2022-09-23T13:38:20;23.50;1.00
10213;DHT22;5150;51.400;6.692;2022-09-23T13:41:48;23.60;1.00
10213;DHT22;5150;51.400;6.692;2022-09-23T13:45:15;23.60;1.00
10213;DHT22;5150;51.400;6.692;2022-09-23T13:48:40;23.60;1.00
10213;DHT22;5150;51.400;6.692;2022-09-23T13:52:05;23.70;1.00
10213;DHT22;5150;51.400;6.692;2022-09-23T13:55:44;23.70;1.00
10213;DHT22;5150;51.400;6.692;2022-09-23T13:59:23;23.60;1.00
10213;DHT22;5150;51.400;6.692;2022-09-23T14:02:46;23.60;1.00
10213;DHT22;5150;51.400;6.692;2022-09-23T14:06:10;23.60;1.00
10213;DHT22;5150;51.400;6.692;2022-09-23T14:09:36;23.60;1.00
10213;DHT22;5150;51.400;6.692;2022-09-23T14:12:59;23.50;1.00
10213;DHT22;5150;51.400;6.692;2022-09-23T14:16:25;23.50;1.00
10213;DHT22;5150;51.400;6.692;2022-09-23T14:19:49;23.40;1.00
10213;DHT22;5150;51.400;6.692;2022-09-23T14:23:13;23.30;1.00
10213;DHT22;5150;51.400;6.692;2022-09-23T14:26:37;23.30;1.00
10213;DHT22;5150;51.400;6.692;2022-09-23T14:30:02;23.20;1.00
10213;DHT22;5150;51.400;6.692;2022-09-23T14:33:31;23.20;1.00
10213;DHT22;5150;51.400;6.692;2022-09-23T14:36:54;23.20;1.00
10213;DHT22;5150;51.400;6.692;2022-09-23T14:40:37;23.10;1.00
10213;DHT22;5150;51.400;6.692;2022-09-23T14:44:01;23.10;1.00
10213;DHT22;5150;51.400;6.692;2022-09-23T14:47:24;23.10;1.00
10213;DHT22;5150;51.400;6.692;2022-09-23T14:50:50;23.00;1.00
10213;DHT22;5150;51.400;6.692;2022-09-23T14:54:30;23.00;1.00
10213;DHT22;5150;51.400;6.692;2022-09-23T14:58:01;23.00;1.00
10213;DHT22;5150;51.400;6.692;2022-09-23T15:01:36;22.90;1.00
10213;DHT22;5150;51.400;6.692;2022-09-23T15:05:15;22.90;1.00
10213;DHT22;5150;51.400;6.692;2022-09-23T15:08:40;22.90;1.00
10213;DHT22;5150;51.400;6.692;2022-09-23T15:12:06;22.90;1.00
10213;DHT22;5150;51.400;6.692;2022-09-23T15:15:30;22.80;1.00
10213;DHT22;5150;51.400;6.692;2022-09-23T15:18:53;22.80;1.00
10213;DHT22;5150;51.400;6.692;2022-09-23T15:22:17;22.80;1.00
10213;DHT22;5150;51.400;6.692;2022-09-23T15:25:41;22.70;1.00
10213;DHT22;5150;51.400;6.692;2022-09-23T15:29:07;22.70;1.00
10213;DHT22;5150;51.400;6.692;2022-09-23T15:32:30;22.70;1.00
10213;DHT22;5150;51.400;6.692;2022-09-23T15:35:53;22.70;1.00
10213;DHT22;5150;51.400;6.692;2022-09-23T15:39:16;22.70;1.00
10213;DHT22;5150;51.400;6.692;2022-09-23T15:42:44;22.70;1.00
10213;DHT22;5150;51.400;6.692;2022-09-23T15:46:12;22.70;1.00
10213;DHT22;5150;51.400;6.692;2022-09-23T15:49:37;22.70;1.00
10213;DHT22;5150;51.400;6.692;2022-09-23T15:53:00;22.70;1.00
10213;DHT22;5150;51.400;6.692;2022-09-23T15:56:24;22.60;1.00
10213;DHT22;5150;51.400;6.692;2022-09-23T15:59:48;22.60;1.00
10213;DHT22;5150;51.400;6.692;2022-09-23T16:03:12;22.60;1.00
10213;DHT22;5150;51.400;6.692;2022-09-23T16:06:36;22.60;1.00
10213;DHT22;5150;51.400;6.692;2022-09-23T16:10:00;22.50;1.00
10213;DHT22;5150;51.400;6.692;2022-09-23T16:13:23;22.50;1.00
10213;DHT22;5150;51.400;6.692;2022-09-23T16:16:47;22.50;1.00
10213;DHT22;5150;51.400;6.692;2022-09-23T16:20:11;22.50;1.00
10213;DHT22;5150;51.400;6.692;2022-09-23T16:23:38;22.50;1.00
10213;DHT22;5150;51.400;6.692;2022-09-23T16:27:05;22.50;1.00
10213;DHT22;5150;51.400;6.692;2022-09-23T16:30:31;22.50;1.00
10213;DHT22;5150;51.400;6.692;2022-09-23T16:33:56;22.40;1.00
10213;DHT22;5150;51.400;6.692;2022-09-23T16:37:22;22.40;1.00
10213;DHT22;5150;51.400;6.692;2022-09-23T16:40:46;22.40;1.00
10213;DHT22;5150;51.400;6.692;2022-09-23T16:44:09;22.40;1.00
10213;DHT22;5150;51.400;6.692;2022-09-23T16:47:33;22.40;1.00
10213;DHT22;5150;51.400;6.692;2022-09-23T16:51:02;22.30;1.00
10213;DHT22;5150;51.400;6.692;2022-09-23T16:54:24;22.30;1.00
10213;DHT22;5150;51.400;6.692;2022-09-23T16:57:47;22.20;1.00
10213;DHT22;5150;51.400;6.692;2022-09-23T17:01:13;22.30;1.00
10213;DHT22;5150;51.400;6.692;2022-09-23T17:04:54;22.30;1.00
10213;DHT22;5150;51.400;6.692;2022-09-23T17:08:19;22.20;1.00
10213;DHT22;5150;51.400;6.692;2022-09-23T17:11:41;22.20;1.00
10213;DHT22;5150;51.400;6.692;2022-09-23T17:15:09;22.20;1.00
10213;DHT22;5150;51.400;6.692;2022-09-23T17:18:32;22.10;1.00
10213;DHT22;5150;51.400;6.692;2022-09-23T17:21:55;22.10;1.00
10213;DHT22;5150;51.400;6.692;2022-09-23T17:25:19;22.10;1.00
10213;DHT22;5150;51.400;6.692;2022-09-23T17:28:42;22.10;1.00
10213;DHT22;5150;51.400;6.692;2022-09-23T17:32:05;22.10;1.00
10213;DHT22;5150;51.400;6.692;2022-09-23T17:35:30;22.10;1.00
10213;DHT22;5150;51.400;6.692;2022-09-23T17:38:53;22.00;1.00
10213;DHT22;5150;51.400;6.692;2022-09-23T17:42:17;22.00;1.00
10213;DHT22;5150;51.400;6.692;2022-09-23T17:45:40;22.00;1.00
10213;DHT22;5150;51.400;6.692;2022-09-23T17:49:03;22.00;1.00
10213;DHT22;5150;51.400;6.692;2022-09-23T17:52:28;22.00;1.00
10213;DHT22;5150;51.400;6.692;2022-09-23T17:55:55;22.00;1.00
10213;DHT22;5150;51.400;6.692;2022-09-23T17:59:20;21.90;1.00
10213;DHT22;5150;51.400;6.692;2022-09-23T18:02:42;21.90;1.00
10213;DHT22;5150;51.400;6.692;2022-09-23T18:06:08;21.90;1.00
10213;DHT22;5150;51.400;6.692;2022-09-23T18:09:31;21.90;1.00
10213;DHT22;5150;51.400;6.692;2022-09-23T18:12:54;21.80;1.00
10213;DHT22;5150;51.400;6.692;2022-09-23T18:16:19;21.80;1.00
10213;DHT22;5150;51.400;6.692;2022-09-23T18:19:43;21.80;1.00
10213;DHT22;5150;51.400;6.692;2022-09-23T18:23:09;21.80;1.00
10213;DHT22;5150;51.400;6.692;2022-09-23T18:26:33;21.70;1.00
10213;DHT22;5150;51.400;6.692;2022-09-23T18:29:56;21.80;1.00
10213;DHT22;5150;51.400;6.692;2022-09-23T18:33:21;21.70;1.00
10213;DHT22;5150;51.400;6.692;2022-09-23T18:36:45;21.70;1.00
10213;DHT22;5150;51.400;6.692;2022-09-23T18:40:08;21.70;1.00
10213;DHT22;5150;51.400;6.692;2022-09-23T18:43:35;21.70;1.00
10213;DHT22;5150;51.400;6.692;2022-09-23T18:47:04;21.70;1.00
10213;DHT22;5150;51.400;6.692;2022-09-23T18:50:29;21.70;1.00
10213;DHT22;5150;51.400;6.692;2022-09-23T18:54:05;21.60;1.00
10213;DHT22;5150;51.400;6.692;2022-09-23T18:57:29;21.60;1.00
10213;DHT22;5150;51.400;6.692;2022-09-23T19:00:52;21.60;1.00
10213;DHT22;5150;51.400;6.692;2022-09-23T19:04:17;21.60;1.00
10213;DHT22;5150;51.400;6.692;2022-09-23T19:07:42;21.60;1.00
10213;DHT22;5150;51.400;6.692;2022-09-23T19:11:07;21.60;1.00
10213;DHT22;5150;51.400;6.692;2022-09-23T19:14:31;21.60;1.00
10213;DHT22;5150;51.400;6.692;2022-09-23T19:17:54;21.60;1.00
10213;DHT22;5150;51.400;6.692;2022-09-23T19:21:20;21.50;1.00
10213;DHT22;5150;51.400;6.692;2022-09-23T19:24:44;21.50;1.00
10213;DHT22;5150;51.400;6.692;2022-09-23T19:28:07;21.50;1.00
10213;DHT22;5150;51.400;6.692;2022-09-23T19:31:32;21.50;1.00
10213;DHT22;5150;51.400;6.692;2022-09-23T19:34:55;21.50;1.00
10213;DHT22;5150;51.400;6.692;2022-09-23T19:38:20;21.50;1.00
10213;DHT22;5150;51.400;6.692;2022-09-23T19:41:45;21.50;1.00
10213;DHT22;5150;51.400;6.692;2022-09-23T19:45:09;21.40;1.00
10213;DHT22;5150;51.400;6.692;2022-09-23T19:48:32;21.40;1.00
10213;DHT22;5150;51.400;6.692;2022-09-23T19:51:56;21.40;1.00
10213;DHT22;5150;51.400;6.692;2022-09-23T19:55:18;21.40;1.00
10213;DHT22;5150;51.400;6.692;2022-09-23T19:58:44;21.40;1.00
10213;DHT22;5150;51.400;6.692;2022-09-23T20:02:08;21.40;1.00
10213;DHT22;5150;51.400;6.692;2022-09-23T20:05:32;21.40;1.00
10213;DHT22;5150;51.400;6.692;2022-09-23T20:08:57;21.40;1.00
10213;DHT22;5150;51.400;6.692;2022-09-23T20:12:21;21.40;1.00
10213;DHT22;5150;51.400;6.692;2022-09-23T20:15:46;21.40;1.00
10213;DHT22;5150;51.400;6.692;2022-09-23T20:19:10;21.40;1.00
10213;DHT22;5150;51.400;6.692;2022-09-23T20:22:33;21.30;1.00
10213;DHT22;5150;51.400;6.692;2022-09-23T20:25:57;21.30;1.00
10213;DHT22;5150;51.400;6.692;2022-09-23T20:29:38;21.30;1.00
10213;DHT22;5150;51.400;6.692;2022-09-23T20:33:02;21.30;1.00
10213;DHT22;5150;51.400;6.692;2022-09-23T20:36:26;21.30;1.00
10213;DHT22;5150;51.400;6.692;2022-09-23T20:39:51;21.30;1.00
10213;DHT22;5150;51.400;6.692;2022-09-23T20:43:14;21.30;1.00
10213;DHT22;5150;51.400;6.692;2022-09-23T20:46:39;21.30;1.00
10213;DHT22;5150;51.400;6.692;2022-09-23T20:50:10;21.30;1.00
10213;DHT22;5150;51.400;6.692;2022-09-23T20:53:33;21.30;1.00
10213;DHT22;5150;51.400;6.692;2022-09-23T20:56:56;21.30;1.00
10213;DHT22;5150;51.400;6.692;2022-09-23T21:00:20;21.30;1.00
10213;DHT22;5150;51.400;6.692;2022-09-23T21:03:47;21.30;1.00
10213;DHT22;5150;51.400;6.692;2022-09-23T21:07:12;21.20;1.00
10213;DHT22;5150;51.400;6.692;2022-09-23T21:10:35;21.20;1.00
10213;DHT22;5150;51.400;6.692;2022-09-23T21:13:58;21.20;1.00
10213;DHT22;5150;51.400;6.692;2022-09-23T21:17:24;21.20;1.00
10213;DHT22;5150;51.400;6.692;2022-09-23T21:20:54;21.20;1.00
10213;DHT22;5150;51.400;6.692;2022-09-23T21:24:18;21.20;1.00
10213;DHT22;5150;51.400;6.692;2022-09-23T21:28:02;21.20;1.00
10213;DHT22;5150;51.400;6.692;2022-09-23T21:31:26;21.20;1.00
10213;DHT22;5150;51.400;6.692;2022-09-23T21:34:51;21.20;1.00
10213;DHT22;5150;51.400;6.692;2022-09-23T21:38:14;21.20;1.00
10213;DHT22;5150;51.400;6.692;2022-09-23T21:41:38;21.20;1.00
10213;DHT22;5150;51.400;6.692;2022-09-23T21:45:01;21.10;1.00
10213;DHT22;5150;51.400;6.692;2022-09-23T21:48:26;21.10;1.00
10213;DHT22;5150;51.400;6.692;2022-09-23T21:51:49;21.20;1.00
10213;DHT22;5150;51.400;6.692;2022-09-23T21:55:19;21.10;1.00
10213;DHT22;5150;51.400;6.692;2022-09-23T21:58:44;21.10;1.00
10213;DHT22;5150;51.400;6.692;2022-09-23T22:02:09;21.10;1.00
10213;DHT22;5150;51.400;6.692;2022-09-23T22:05:32;21.10;1.00
10213;DHT22;5150;51.400;6.692;2022-09-23T22:08:56;21.10;1.00
10213;DHT22;5150;51.400;6.692;2022-09-23T22:12:20;21.10;1.00
10213;DHT22;5150;51.400;6.692;2022-09-23T22:15:45;21.10;1.00
10213;DHT22;5150;51.400;6.692;2022-09-23T22:19:10;21.10;1.00
10213;DHT22;5150;51.400;6.692;2022-09-23T22:22:34;21.10;1.00
10213;DHT22;5150;51.400;6.692;2022-09-23T22:25:57;21.10;1.00
10213;DHT22;5150;51.400;6.692;2022-09-23T22:29:24;21.10;1.00
10213;DHT22;5150;51.400;6.692;2022-09-23T22:33:05;21.10;1.00
10213;DHT22;5150;51.400;6.692;2022-09-23T22:36:29;21.10;1.00
10213;DHT22;5150;51.400;6.692;2022-09-23T22:39:52;21.10;1.00